sensor_id;sensor_type;location;lat;lon;timestamp;temperature;humidity
7588;DHT22;3835;48.850;8.938;2024-02-14T00:00:44;3.40;99.90
7588;DHT22;3835;48.850;8.938;2024-02-14T00:03:11;2.60;99.90
7588;DHT22;3835;48.850;8.938;2024-02-14T00:05:37;3.00;99.90
7588;DHT22;3835;48.850;8.938;2024-02-14T00:08:06;3.00;99.90
7588;DHT22;3835;48.850;8.938;2024-02-14T00:10:33;3.10;99.90
7588;DHT22;3835;48.850;8.938;2024-02-14T00:13:01;3.50;99.90
7588;DHT22;3835;48.850;8.938;2024-02-14T00:15:29;3.00;99.90
7588;DHT22;3835;48.850;8.938;2024-02-14T00:17:56;3.00;99.90
7588;DHT22;3835;48.850;8.938;2024-02-14T00:20:23;3.10;99.90
7588;DHT22;3835;48.850;8.938;2024-02-14T00:22:50;3.10;99.90
7588;DHT22;3835;48.850;8.938;2024-02-14T00:25:17;3.40;99.90
7588;DHT22;3835;48.850;8.938;2024-02-14T00:27:45;3.30;99.90
7588;DHT22;3835;48.850;8.938;2024-02-14T00:30:13;3.60;99.90
7588;DHT22;3835;48.850;8.938;2024-02-14T00:32:40;3.50;99.90
7588;DHT22;3835;48.850;8.938;2024-02-14T00:35:07;3.50;99.90
7588;DHT22;3835;48.850;8.938;2024-02-14T00:37:34;3.90;99.90
7588;DHT22;3835;48.850;8.938;2024-02-14T00:40:01;3.60;99.90
7588;DHT22;3835;48.850;8.938;2024-02-14T00:42:28;3.80;99.90
7588;DHT22;3835;48.850;8.938;2024-02-14T00:44:55;3.60;99.90
7588;DHT22;3835;48.850;8.938;2024-02-14T00:47:23;3.90;99.90
7588;DHT22;3835;48.850;8.938;2024-02-14T00:49:50;3.70;99.90
7588;DHT22;3835;48.850;8.938;2024-02-14T00:52:17;4.40;99.90
7588;DHT22;3835;48.850;8.938;2024-02-14T00:54:47;3.70;99.90
7588;DHT22;3835;48.850;8.938;2024-02-14T00:57:14;4.60;99.90
7588;DHT22;3835;48.850;8.938;2024-02-14T00:59:41;3.80;99.90
7588;DHT22;3835;48.850;8.938;2024-02-14T01:02:08;3.90;99.90
7588;DHT22;3835;48.850;8.938;2024-02-14T01:04:36;4.70;99.90
7588;DHT22;3835;48.850;8.938;2024-02-14T01:07:03;4.10;99.90
7588;DHT22;3835;48.850;8.938;2024-02-14T01:09:30;4.00;99.90
7588;DHT22;3835;48.850;8.938;2024-02-14T01:11:59;4.30;99.90
7588;DHT22;3835;48.850;8.938;2024-02-14T01:14:26;4.10;99.90
7588;DHT22;3835;48.850;8.938;2024-02-14T01:16:52;4.10;99.90
7588;DHT22;3835;48.850;8.938;2024-02-14T01:19:20;4.10;99.90
7588;DHT22;3835;48.850;8.938;2024-02-14T01:21:50;4.10;99.90
7588;DHT22;3835;48.850;8.938;2024-02-14T01:24:17;4.20;99.90
7588;DHT22;3835;48.850;8.938;2024-02-14T01:26:44;4.40;99.90
7588;DHT22;3835;48.850;8.938;2024-02-14T01:29:11;4.40;99.90
7588;DHT22;3835;48.850;8.938;2024-02-14T01:31:37;4.20;99.90
7588;DHT22;3835;48.850;8.938;2024-02-14T01:34:04;4.30;99.90
7588;DHT22;3835;48.850;8.938;2024-02-14T01:36:31;4.80;99.90
7588;DHT22;3835;48.850;8.938;2024-02-14T01:38:59;4.30;99.90
7588;DHT22;3835;48.850;8.938;2024-02-14T01:41:26;4.10;99.90
7588;DHT22;3835;48.850;8.938;2024-02-14T01:43:53;4.50;99.90
7588;DHT22;3835;48.850;8.938;2024-02-14T01:46:20;4.40;99.90
7588;DHT22;3835;48.850;8.938;2024-02-14T01:48:47;4.40;99.90
7588;DHT22;3835;48.850;8.938;2024-02-14T01:51:16;4.50;99.90
7588;DHT22;3835;48.850;8.938;2024-02-14T01:53:43;4.50;99.90
7588;DHT22;3835;48.850;8.938;2024-02-14T01:56:12;4.60;99.90
7588;DHT22;3835;48.850;8.938;2024-02-14T01:58:39;4.70;99.90
7588;DHT22;3835;48.850;8.938;2024-02-14T02:01:06;4.60;99.90
7588;DHT22;3835;48.850;8.938;2024-02-14T02:03:33;4.70;99.90
7588;DHT22;3835;48.850;8.938;2024-02-14T02:06:02;4.60;99.90
7588;DHT22;3835;48.850;8.938;2024-02-14T02:08:29;4.60;99.90
7588;DHT22;3835;48.850;8.938;2024-02-14T02:10:55;4.50;99.90
7588;DHT22;3835;48.850;8.938;2024-02-14T02:13:24;4.60;99.90
7588;DHT22;3835;48.850;8.938;2024-02-14T02:15:51;4.40;99.90
7588;DHT22;3835;48.850;8.938;2024-02-14T02:18:19;4.30;99.90
7588;DHT22;3835;48.850;8.938;2024-02-14T02:20:46;4.30;99.90
7588;DHT22;3835;48.850;8.938;2024-02-14T02:23:14;4.30;99.90
7588;DHT22;3835;48.850;8.938;2024-02-14T02:25:41;4.20;99.90
7588;DHT22;3835;48.850;8.938;2024-02-14T02:28:08;4.00;99.90
7588;DHT22;3835;48.850;8.938;2024-02-14T02:30:35;3.90;99.90
7588;DHT22;3835;48.850;8.938;2024-02-14T02:33:03;3.70;99.90
7588;DHT22;3835;48.850;8.938;2024-02-14T02:35:30;3.70;99.90
7588;DHT22;3835;48.850;8.938;2024-02-14T02:37:57;3.70;99.90
7588;DHT22;3835;48.850;8.938;2024-02-14T02:40:25;3.60;99.90
7588;DHT22;3835;48.850;8.938;2024-02-14T02:42:52;4.00;99.90
7588;DHT22;3835;48.850;8.938;2024-02-14T02:45:19;3.70;99.90
7588;DHT22;3835;48.850;8.938;2024-02-14T02:47:46;3.60;99.90
7588;DHT22;3835;48.850;8.938;2024-02-14T02:50:14;3.70;99.90
7588;DHT22;3835;48.850;8.938;2024-02-14T02:52:40;3.50;99.90
7588;DHT22;3835;48.850;8.938;2024-02-14T02:55:07;3.60;99.90
7588;DHT22;3835;48.850;8.938;2024-02-14T02:57:37;3.40;99.90
7588;DHT22;3835;48.850;8.938;2024-02-14T03:00:06;3.40;99.90
7588;DHT22;3835;48.850;8.938;2024-02-14T03:02:34;3.40;99.90
7588;DHT22;3835;48.850;8.938;2024-02-14T03:05:04;3.30;99.90
7588;DHT22;3835;48.850;8.938;2024-02-14T03:07:35;3.40;99.90
7588;DHT22;3835;48.850;8.938;2024-02-14T03:10:03;3.40;99.90
7588;DHT22;3835;48.850;8.938;2024-02-14T03:12:30;3.20;99.90
7588;DHT22;3835;48.850;8.938;2024-02-14T03:14:59;3.20;99.90
7588;DHT22;3835;48.850;8.938;2024-02-14T03:17:26;3.40;99.90
7588;DHT22;3835;48.850;8.938;2024-02-14T03:19:54;3.20;99.90
7588;DHT22;3835;48.850;8.938;2024-02-14T03:22:22;3.30;99.90
7588;DHT22;3835;48.850;8.938;2024-02-14T03:24:48;3.30;99.90
7588;DHT22;3835;48.850;8.938;2024-02-14T03:27:15;3.40;99.90
7588;DHT22;3835;48.850;8.938;2024-02-14T03:29:44;3.30;99.90
7588;DHT22;3835;48.850;8.938;2024-02-14T03:32:14;3.70;99.90
7588;DHT22;3835;48.850;8.938;2024-02-14T03:34:41;3.30;99.90
7588;DHT22;3835;48.850;8.938;2024-02-14T03:37:08;3.60;99.90
7588;DHT22;3835;48.850;8.938;2024-02-14T03:39:34;3.30;99.90
7588;DHT22;3835;48.850;8.938;2024-02-14T03:42:02;3.30;99.90
7588;DHT22;3835;48.850;8.938;2024-02-14T03:44:32;3.30;99.90
7588;DHT22;3835;48.850;8.938;2024-02-14T03:46:59;3.30;99.90
7588;DHT22;3835;48.850;8.938;2024-02-14T03:49:28;3.50;99.90
7588;DHT22;3835;48.850;8.938;2024-02-14T03:51:56;3.90;99.90
7588;DHT22;3835;48.850;8.938;2024-02-14T03:54:23;3.60;99.90
7588;DHT22;3835;48.850;8.938;2024-02-14T03:56:50;4.00;99.90
7588;DHT22;3835;48.850;8.938;2024-02-14T03:59:18;3.60;99.90
7588;DHT22;3835;48.850;8.938;2024-02-14T04:01:49;3.50;99.90
7588;DHT22;3835;48.850;8.938;2024-02-14T04:04:19;3.50;99.90
7588;DHT22;3835;48.850;8.938;2024-02-14T04:06:47;3.50;99.90
7588;DHT22;3835;48.850;8.938;2024-02-14T04:09:14;4.00;99.90
7588;DHT22;3835;48.850;8.938;2024-02-14T04:11:41;3.50;99.90
7588;DHT22;3835;48.850;8.938;2024-02-14T04:14:07;3.50;99.90
7588;DHT22;3835;48.850;8.938;2024-02-14T04:16:34;3.70;99.90
7588;DHT22;3835;48.850;8.938;2024-02-14T04:19:02;3.50;99.90
7588;DHT22;3835;48.850;8.938;2024-02-14T04:21:29;3.40;99.90
7588;DHT22;3835;48.850;8.938;2024-02-14T04:23:57;3.50;99.90
7588;DHT22;3835;48.850;8.938;2024-02-14T04:26:24;3.50;99.90
7588;DHT22;3835;48.850;8.938;2024-02-14T04:28:52;3.60;99.90
7588;DHT22;3835;48.850;8.938;2024-02-14T04:31:19;3.70;99.90
7588;DHT22;3835;48.850;8.938;2024-02-14T04:33:46;3.80;99.90
7588;DHT22;3835;48.850;8.938;2024-02-14T04:36:17;4.00;99.90
7588;DHT22;3835;48.850;8.938;2024-02-14T04:38:44;3.90;99.90
7588;DHT22;3835;48.850;8.938;2024-02-14T04:41:12;4.20;99.90
7588;DHT22;3835;48.850;8.938;2024-02-14T04:43:39;4.10;99.90
7588;DHT22;3835;48.850;8.938;2024-02-14T04:46:06;4.20;99.90
7588;DHT22;3835;48.850;8.938;2024-02-14T04:48:34;3.90;99.90
7588;DHT22;3835;48.850;8.938;2024-02-14T04:51:01;3.90;99.90
7588;DHT22;3835;48.850;8.938;2024-02-14T04:53:28;3.90;99.90
7588;DHT22;3835;48.850;8.938;2024-02-14T04:55:55;3.90;99.90
7588;DHT22;3835;48.850;8.938;2024-02-14T04:58:23;4.20;99.90
7588;DHT22;3835;48.850;8.938;2024-02-14T05:00:52;3.90;99.90
7588;DHT22;3835;48.850;8.938;2024-02-14T05:03:20;3.70;99.90
7588;DHT22;3835;48.850;8.938;2024-02-14T05:05:49;3.80;99.90
7588;DHT22;3835;48.850;8.938;2024-02-14T05:08:16;4.20;99.90
7588;DHT22;3835;48.850;8.938;2024-02-14T05:10:43;4.20;99.90
7588;DHT22;3835;48.850;8.938;2024-02-14T05:13:11;3.80;99.90
7588;DHT22;3835;48.850;8.938;2024-02-14T05:15:40;3.90;99.90
7588;DHT22;3835;48.850;8.938;2024-02-14T05:18:06;3.90;99.90
7588;DHT22;3835;48.850;8.938;2024-02-14T05:20:33;3.90;99.90
7588;DHT22;3835;48.850;8.938;2024-02-14T05:23:00;4.10;99.90
7588;DHT22;3835;48.850;8.938;2024-02-14T05:25:27;3.90;99.90
7588;DHT22;3835;48.850;8.938;2024-02-14T05:27:55;3.80;99.90
7588;DHT22;3835;48.850;8.938;2024-02-14T05:30:22;3.90;99.90
7588;DHT22;3835;48.850;8.938;2024-02-14T05:32:51;3.90;99.90
7588;DHT22;3835;48.850;8.938;2024-02-14T05:35:18;3.80;99.90
7588;DHT22;3835;48.850;8.938;2024-02-14T05:37:45;3.70;99.90
7588;DHT22;3835;48.850;8.938;2024-02-14T05:40:15;3.70;99.90
7588;DHT22;3835;48.850;8.938;2024-02-14T05:42:42;3.60;99.90
7588;DHT22;3835;48.850;8.938;2024-02-14T05:45:09;3.70;99.90
7588;DHT22;3835;48.850;8.938;2024-02-14T05:47:36;3.60;99.90
7588;DHT22;3835;48.850;8.938;2024-02-14T05:50:06;3.70;99.90
7588;DHT22;3835;48.850;8.938;2024-02-14T05:52:34;3.80;99.90
7588;DHT22;3835;48.850;8.938;2024-02-14T05:55:01;3.80;99.90
7588;DHT22;3835;48.850;8.938;2024-02-14T05:57:28;3.80;99.90
7588;DHT22;3835;48.850;8.938;2024-02-14T05:59:55;4.00;99.90
7588;DHT22;3835;48.850;8.938;2024-02-14T06:02:22;3.90;99.90
7588;DHT22;3835;48.850;8.938;2024-02-14T06:04:49;3.80;99.90
7588;DHT22;3835;48.850;8.938;2024-02-14T06:07:18;3.60;99.90
7588;DHT22;3835;48.850;8.938;2024-02-14T06:09:44;3.70;99.90
7588;DHT22;3835;48.850;8.938;2024-02-14T06:12:12;3.60;99.90
7588;DHT22;3835;48.850;8.938;2024-02-14T06:14:39;3.50;99.90
7588;DHT22;3835;48.850;8.938;2024-02-14T06:17:05;3.50;99.90
7588;DHT22;3835;48.850;8.938;2024-02-14T06:19:32;3.60;99.90
7588;DHT22;3835;48.850;8.938;2024-02-14T06:22:00;3.50;99.90
7588;DHT22;3835;48.850;8.938;2024-02-14T06:24:28;3.50;99.90
7588;DHT22;3835;48.850;8.938;2024-02-14T06:26:55;3.90;99.90
7588;DHT22;3835;48.850;8.938;2024-02-14T06:29:22;3.50;99.90
7588;DHT22;3835;48.850;8.938;2024-02-14T06:31:49;3.60;99.90
7588;DHT22;3835;48.850;8.938;2024-02-14T06:34:16;3.60;99.90
7588;DHT22;3835;48.850;8.938;2024-02-14T06:36:44;3.60;99.90
7588;DHT22;3835;48.850;8.938;2024-02-14T06:39:11;3.70;99.90
7588;DHT22;3835;48.850;8.938;2024-02-14T06:41:39;3.80;99.90
7588;DHT22;3835;48.850;8.938;2024-02-14T06:44:06;3.90;99.90
7588;DHT22;3835;48.850;8.938;2024-02-14T06:46:33;4.20;99.90
7588;DHT22;3835;48.850;8.938;2024-02-14T06:49:01;4.10;99.90
7588;DHT22;3835;48.850;8.938;2024-02-14T06:51:28;4.20;99.90
7588;DHT22;3835;48.850;8.938;2024-02-14T06:53:56;4.30;99.90
7588;DHT22;3835;48.850;8.938;2024-02-14T06:56:22;4.20;99.90
7588;DHT22;3835;48.850;8.938;2024-02-14T06:58:51;4.70;99.90
7588;DHT22;3835;48.850;8.938;2024-02-14T07:01:25;4.50;99.90
7588;DHT22;3835;48.850;8.938;2024-02-14T07:03:52;4.50;99.90
7588;DHT22;3835;48.850;8.938;2024-02-14T07:06:19;4.60;99.90
7588;DHT22;3835;48.850;8.938;2024-02-14T07:08:46;4.60;99.90
7588;DHT22;3835;48.850;8.938;2024-02-14T07:11:14;4.80;99.90
7588;DHT22;3835;48.850;8.938;2024-02-14T07:13:42;4.90;99.90
7588;DHT22;3835;48.850;8.938;2024-02-14T07:16:10;4.90;99.90
7588;DHT22;3835;48.850;8.938;2024-02-14T07:18:37;5.10;99.90
7588;DHT22;3835;48.850;8.938;2024-02-14T07:21:05;5.10;99.90
7588;DHT22;3835;48.850;8.938;2024-02-14T07:23:32;5.10;99.90
7588;DHT22;3835;48.850;8.938;2024-02-14T07:25:59;5.10;99.90
7588;DHT22;3835;48.850;8.938;2024-02-14T07:28:27;5.20;99.90
7588;DHT22;3835;48.850;8.938;2024-02-14T07:30:54;5.40;99.90
7588;DHT22;3835;48.850;8.938;2024-02-14T07:33:22;5.50;99.90
7588;DHT22;3835;48.850;8.938;2024-02-14T07:35:49;5.50;99.90
7588;DHT22;3835;48.850;8.938;2024-02-14T07:38:16;5.80;99.90
7588;DHT22;3835;48.850;8.938;2024-02-14T07:40:43;5.90;99.90
7588;DHT22;3835;48.850;8.938;2024-02-14T07:43:10;6.10;99.90
7588;DHT22;3835;48.850;8.938;2024-02-14T07:45:37;6.30;99.90
7588;DHT22;3835;48.850;8.938;2024-02-14T07:48:05;6.50;99.90
7588;DHT22;3835;48.850;8.938;2024-02-14T07:50:34;6.70;99.90
7588;DHT22;3835;48.850;8.938;2024-02-14T07:53:02;6.90;99.90
7588;DHT22;3835;48.850;8.938;2024-02-14T07:55:29;7.10;99.90
7588;DHT22;3835;48.850;8.938;2024-02-14T07:57:56;7.20;99.90
7588;DHT22;3835;48.850;8.938;2024-02-14T08:00:25;7.20;99.90
7588;DHT22;3835;48.850;8.938;2024-02-14T08:02:52;7.30;99.90
7588;DHT22;3835;48.850;8.938;2024-02-14T08:05:18;7.50;99.90
7588;DHT22;3835;48.850;8.938;2024-02-14T08:07:47;7.40;99.90
7588;DHT22;3835;48.850;8.938;2024-02-14T08:10:14;7.50;99.90
7588;DHT22;3835;48.850;8.938;2024-02-14T08:12:41;7.50;99.90
7588;DHT22;3835;48.850;8.938;2024-02-14T08:15:09;7.50;99.90
7588;DHT22;3835;48.850;8.938;2024-02-14T08:17:36;7.60;99.90
7588;DHT22;3835;48.850;8.938;2024-02-14T08:20:04;7.70;99.90
7588;DHT22;3835;48.850;8.938;2024-02-14T08:22:31;7.90;99.90
7588;DHT22;3835;48.850;8.938;2024-02-14T08:24:59;8.00;99.90
7588;DHT22;3835;48.850;8.938;2024-02-14T08:27:26;8.10;99.90
7588;DHT22;3835;48.850;8.938;2024-02-14T08:29:53;8.20;99.90
7588;DHT22;3835;48.850;8.938;2024-02-14T08:32:20;8.20;99.90
7588;DHT22;3835;48.850;8.938;2024-02-14T08:34:48;8.30;99.90
7588;DHT22;3835;48.850;8.938;2024-02-14T08:37:25;8.30;99.90
7588;DHT22;3835;48.850;8.938;2024-02-14T08:39:53;8.40;99.90
7588;DHT22;3835;48.850;8.938;2024-02-14T08:42:22;8.30;99.90
7588;DHT22;3835;48.850;8.938;2024-02-14T08:44:48;8.40;99.90
7588;DHT22;3835;48.850;8.938;2024-02-14T08:47:15;8.40;99.90
7588;DHT22;3835;48.850;8.938;2024-02-14T08:49:43;8.30;99.90
7588;DHT22;3835;48.850;8.938;2024-02-14T08:52:09;8.30;99.90
7588;DHT22;3835;48.850;8.938;2024-02-14T08:54:36;8.30;99.90
7588;DHT22;3835;48.850;8.938;2024-02-14T08:57:04;8.30;99.90
7588;DHT22;3835;48.850;8.938;2024-02-14T08:59:32;8.30;99.90
7588;DHT22;3835;48.850;8.938;2024-02-14T09:01:59;8.40;99.90
7588;DHT22;3835;48.850;8.938;2024-02-14T09:04:26;8.40;99.90
7588;DHT22;3835;48.850;8.938;2024-02-14T09:06:53;8.50;99.90
7588;DHT22;3835;48.850;8.938;2024-02-14T09:09:20;8.40;99.90
7588;DHT22;3835;48.850;8.938;2024-02-14T09:11:47;8.40;99.90
7588;DHT22;3835;48.850;8.938;2024-02-14T09:14:14;8.40;99.90
7588;DHT22;3835;48.850;8.938;2024-02-14T09:16:42;8.60;99.90
7588;DHT22;3835;48.850;8.938;2024-02-14T09:19:11;8.80;99.90
7588;DHT22;3835;48.850;8.938;2024-02-14T09:21:38;8.90;99.90
7588;DHT22;3835;48.850;8.938;2024-02-14T09:24:05;9.00;99.90
7588;DHT22;3835;48.850;8.938;2024-02-14T09:26:32;9.10;99.90
7588;DHT22;3835;48.850;8.938;2024-02-14T09:28:59;9.30;99.90
7588;DHT22;3835;48.850;8.938;2024-02-14T09:31:26;9.40;99.90
7588;DHT22;3835;48.850;8.938;2024-02-14T09:33:54;9.50;99.90
7588;DHT22;3835;48.850;8.938;2024-02-14T09:36:23;9.70;99.90
7588;DHT22;3835;48.850;8.938;2024-02-14T09:38:51;9.60;99.90
7588;DHT22;3835;48.850;8.938;2024-02-14T09:41:23;9.60;99.90
7588;DHT22;3835;48.850;8.938;2024-02-14T09:43:52;9.60;99.90
7588;DHT22;3835;48.850;8.938;2024-02-14T09:46:18;9.90;99.90
7588;DHT22;3835;48.850;8.938;2024-02-14T09:48:46;10.20;99.90
7588;DHT22;3835;48.850;8.938;2024-02-14T09:51:14;10.20;99.90
7588;DHT22;3835;48.850;8.938;2024-02-14T09:53:41;10.80;99.90
7588;DHT22;3835;48.850;8.938;2024-02-14T09:56:10;10.70;99.90
7588;DHT22;3835;48.850;8.938;2024-02-14T09:58:40;10.90;99.90
7588;DHT22;3835;48.850;8.938;2024-02-14T10:01:07;11.10;99.90
7588;DHT22;3835;48.850;8.938;2024-02-14T10:03:34;11.20;99.90
7588;DHT22;3835;48.850;8.938;2024-02-14T10:06:02;10.90;99.90
7588;DHT22;3835;48.850;8.938;2024-02-14T10:08:31;10.90;99.90
7588;DHT22;3835;48.850;8.938;2024-02-14T10:10:58;10.90;99.90
7588;DHT22;3835;48.850;8.938;2024-02-14T10:13:27;10.80;99.90
7588;DHT22;3835;48.850;8.938;2024-02-14T10:15:55;10.80;99.90
7588;DHT22;3835;48.850;8.938;2024-02-14T10:18:22;10.80;99.90
7588;DHT22;3835;48.850;8.938;2024-02-14T10:20:54;10.80;99.90
7588;DHT22;3835;48.850;8.938;2024-02-14T10:23:21;10.80;99.90
7588;DHT22;3835;48.850;8.938;2024-02-14T10:25:50;11.20;99.90
7588;DHT22;3835;48.850;8.938;2024-02-14T10:28:17;11.40;99.90
7588;DHT22;3835;48.850;8.938;2024-02-14T10:30:45;11.40;99.90
7588;DHT22;3835;48.850;8.938;2024-02-14T10:33:12;11.40;99.90
7588;DHT22;3835;48.850;8.938;2024-02-14T10:35:42;11.40;99.90
7588;DHT22;3835;48.850;8.938;2024-02-14T10:38:09;11.60;99.90
7588;DHT22;3835;48.850;8.938;2024-02-14T10:40:36;12.00;99.90
7588;DHT22;3835;48.850;8.938;2024-02-14T10:43:06;12.00;99.90
7588;DHT22;3835;48.850;8.938;2024-02-14T10:45:34;12.30;99.90
7588;DHT22;3835;48.850;8.938;2024-02-14T10:48:04;12.40;99.90
7588;DHT22;3835;48.850;8.938;2024-02-14T10:50:33;12.40;99.90
7588;DHT22;3835;48.850;8.938;2024-02-14T10:53:04;12.30;99.90
7588;DHT22;3835;48.850;8.938;2024-02-14T10:55:32;12.30;99.90
7588;DHT22;3835;48.850;8.938;2024-02-14T10:58:00;12.40;99.90
7588;DHT22;3835;48.850;8.938;2024-02-14T11:00:29;12.30;99.90
7588;DHT22;3835;48.850;8.938;2024-02-14T11:02:58;12.10;99.90
7588;DHT22;3835;48.850;8.938;2024-02-14T11:05:26;12.00;99.90
7588;DHT22;3835;48.850;8.938;2024-02-14T11:07:53;12.10;99.90
7588;DHT22;3835;48.850;8.938;2024-02-14T11:10:21;11.80;99.90
7588;DHT22;3835;48.850;8.938;2024-02-14T11:12:50;11.80;99.90
7588;DHT22;3835;48.850;8.938;2024-02-14T11:15:19;11.80;99.90
7588;DHT22;3835;48.850;8.938;2024-02-14T11:17:47;11.80;99.90
7588;DHT22;3835;48.850;8.938;2024-02-14T11:20:18;11.80;99.90
7588;DHT22;3835;48.850;8.938;2024-02-14T11:22:55;11.90;99.90
7588;DHT22;3835;48.850;8.938;2024-02-14T11:25:27;11.50;99.90
7588;DHT22;3835;48.850;8.938;2024-02-14T11:27:55;11.70;99.90
7588;DHT22;3835;48.850;8.938;2024-02-14T11:30:33;11.90;99.90
7588;DHT22;3835;48.850;8.938;2024-02-14T11:33:13;11.80;99.90
7588;DHT22;3835;48.850;8.938;2024-02-14T11:35:40;11.60;99.90
7588;DHT22;3835;48.850;8.938;2024-02-14T11:38:08;11.70;99.90
7588;DHT22;3835;48.850;8.938;2024-02-14T11:40:35;11.90;99.90
7588;DHT22;3835;48.850;8.938;2024-02-14T11:43:04;12.00;99.90
7588;DHT22;3835;48.850;8.938;2024-02-14T11:45:31;11.90;99.90
7588;DHT22;3835;48.850;8.938;2024-02-14T11:47:58;12.20;99.90
7588;DHT22;3835;48.850;8.938;2024-02-14T11:50:26;12.30;99.90
7588;DHT22;3835;48.850;8.938;2024-02-14T11:52:54;12.40;99.90
7588;DHT22;3835;48.850;8.938;2024-02-14T11:55:27;12.20;99.90
7588;DHT22;3835;48.850;8.938;2024-02-14T11:57:54;12.30;99.90
7588;DHT22;3835;48.850;8.938;2024-02-14T12:00:22;12.40;99.90
7588;DHT22;3835;48.850;8.938;2024-02-14T12:02:49;12.80;99.90
7588;DHT22;3835;48.850;8.938;2024-02-14T12:05:17;12.60;99.90
7588;DHT22;3835;48.850;8.938;2024-02-14T12:07:46;12.40;99.90
7588;DHT22;3835;48.850;8.938;2024-02-14T12:10:13;12.60;99.90
7588;DHT22;3835;48.850;8.938;2024-02-14T12:12:40;12.70;99.90
7588;DHT22;3835;48.850;8.938;2024-02-14T12:15:09;12.60;99.90
7588;DHT22;3835;48.850;8.938;2024-02-14T12:17:36;12.70;99.90
7588;DHT22;3835;48.850;8.938;2024-02-14T12:20:08;12.90;99.90
7588;DHT22;3835;48.850;8.938;2024-02-14T12:22:36;13.00;99.90
7588;DHT22;3835;48.850;8.938;2024-02-14T12:25:06;12.90;99.90
7588;DHT22;3835;48.850;8.938;2024-02-14T12:27:33;13.30;99.90
7588;DHT22;3835;48.850;8.938;2024-02-14T12:30:03;13.60;99.90
7588;DHT22;3835;48.850;8.938;2024-02-14T12:32:30;13.40;99.90
7588;DHT22;3835;48.850;8.938;2024-02-14T12:34:58;13.50;99.90
7588;DHT22;3835;48.850;8.938;2024-02-14T12:37:25;13.50;99.90
7588;DHT22;3835;48.850;8.938;2024-02-14T12:39:52;13.80;99.90
7588;DHT22;3835;48.850;8.938;2024-02-14T12:42:22;13.90;99.90
7588;DHT22;3835;48.850;8.938;2024-02-14T12:44:51;14.00;99.90
7588;DHT22;3835;48.850;8.938;2024-02-14T12:47:19;14.20;99.90
7588;DHT22;3835;48.850;8.938;2024-02-14T12:49:47;13.90;99.90
7588;DHT22;3835;48.850;8.938;2024-02-14T12:52:15;13.90;99.90
7588;DHT22;3835;48.850;8.938;2024-02-14T12:54:43;14.00;99.90
7588;DHT22;3835;48.850;8.938;2024-02-14T12:57:09;14.00;99.90
7588;DHT22;3835;48.850;8.938;2024-02-14T12:59:38;13.80;99.90
7588;DHT22;3835;48.850;8.938;2024-02-14T13:02:05;13.90;99.90
7588;DHT22;3835;48.850;8.938;2024-02-14T13:04:33;14.30;99.90
7588;DHT22;3835;48.850;8.938;2024-02-14T13:07:00;14.20;99.90
7588;DHT22;3835;48.850;8.938;2024-02-14T13:09:27;14.10;99.90
7588;DHT22;3835;48.850;8.938;2024-02-14T13:11:54;13.90;99.90
7588;DHT22;3835;48.850;8.938;2024-02-14T13:14:21;13.90;99.90
7588;DHT22;3835;48.850;8.938;2024-02-14T13:16:49;13.70;99.90
7588;DHT22;3835;48.850;8.938;2024-02-14T13:19:16;13.60;99.90
7588;DHT22;3835;48.850;8.938;2024-02-14T13:21:43;13.80;99.90
7588;DHT22;3835;48.850;8.938;2024-02-14T13:24:12;13.80;99.90
7588;DHT22;3835;48.850;8.938;2024-02-14T13:26:39;14.00;99.90
7588;DHT22;3835;48.850;8.938;2024-02-14T13:29:06;14.10;99.90
7588;DHT22;3835;48.850;8.938;2024-02-14T13:31:33;14.10;99.90
7588;DHT22;3835;48.850;8.938;2024-02-14T13:34:01;14.20;99.90
7588;DHT22;3835;48.850;8.938;2024-02-14T13:36:29;14.20;99.90
7588;DHT22;3835;48.850;8.938;2024-02-14T13:38:57;14.40;99.90
7588;DHT22;3835;48.850;8.938;2024-02-14T13:41:24;14.40;99.90
7588;DHT22;3835;48.850;8.938;2024-02-14T13:43:50;14.30;99.90
7588;DHT22;3835;48.850;8.938;2024-02-14T13:46:17;14.20;99.90
7588;DHT22;3835;48.850;8.938;2024-02-14T13:48:45;14.40;99.90
7588;DHT22;3835;48.850;8.938;2024-02-14T13:51:13;14.40;99.90
7588;DHT22;3835;48.850;8.938;2024-02-14T13:53:40;14.30;99.90
7588;DHT22;3835;48.850;8.938;2024-02-14T13:56:07;14.10;99.90
7588;DHT22;3835;48.850;8.938;2024-02-14T13:58:33;13.70;99.90
7588;DHT22;3835;48.850;8.938;2024-02-14T14:01:00;13.40;99.90
7588;DHT22;3835;48.850;8.938;2024-02-14T14:03:27;13.60;99.90
7588;DHT22;3835;48.850;8.938;2024-02-14T14:05:55;13.40;99.90
7588;DHT22;3835;48.850;8.938;2024-02-14T14:08:24;13.30;99.90
7588;DHT22;3835;48.850;8.938;2024-02-14T14:10:51;13.30;99.90
7588;DHT22;3835;48.850;8.938;2024-02-14T14:13:17;13.40;99.90
7588;DHT22;3835;48.850;8.938;2024-02-14T14:15:44;13.40;99.90
7588;DHT22;3835;48.850;8.938;2024-02-14T14:18:11;13.40;99.90
7588;DHT22;3835;48.850;8.938;2024-02-14T14:20:38;13.40;99.90
7588;DHT22;3835;48.850;8.938;2024-02-14T14:23:05;13.40;99.90
7588;DHT22;3835;48.850;8.938;2024-02-14T14:25:34;13.40;99.90
7588;DHT22;3835;48.850;8.938;2024-02-14T14:28:03;13.50;99.90
7588;DHT22;3835;48.850;8.938;2024-02-14T14:30:30;13.60;99.90
7588;DHT22;3835;48.850;8.938;2024-02-14T14:32:57;13.60;99.90
7588;DHT22;3835;48.850;8.938;2024-02-14T14:35:24;13.60;99.90
7588;DHT22;3835;48.850;8.938;2024-02-14T14:37:50;13.40;99.90
7588;DHT22;3835;48.850;8.938;2024-02-14T14:40:19;13.40;99.90
7588;DHT22;3835;48.850;8.938;2024-02-14T14:42:48;13.40;99.90
7588;DHT22;3835;48.850;8.938;2024-02-14T14:45:15;13.30;99.90
7588;DHT22;3835;48.850;8.938;2024-02-14T14:47:42;13.30;99.90
7588;DHT22;3835;48.850;8.938;2024-02-14T14:50:09;13.30;99.90
7588;DHT22;3835;48.850;8.938;2024-02-14T14:52:38;13.20;99.90
7588;DHT22;3835;48.850;8.938;2024-02-14T14:55:05;13.20;99.90
7588;DHT22;3835;48.850;8.938;2024-02-14T14:57:32;13.10;99.90
7588;DHT22;3835;48.850;8.938;2024-02-14T15:00:07;13.10;99.90
7588;DHT22;3835;48.850;8.938;2024-02-14T15:02:38;13.10;99.90
7588;DHT22;3835;48.850;8.938;2024-02-14T15:05:06;13.10;99.90
7588;DHT22;3835;48.850;8.938;2024-02-14T15:07:33;13.10;99.90
7588;DHT22;3835;48.850;8.938;2024-02-14T15:10:00;13.10;99.90
7588;DHT22;3835;48.850;8.938;2024-02-14T15:12:26;13.00;99.90
7588;DHT22;3835;48.850;8.938;2024-02-14T15:14:53;13.20;99.90
7588;DHT22;3835;48.850;8.938;2024-02-14T15:17:22;13.10;99.90
7588;DHT22;3835;48.850;8.938;2024-02-14T15:19:49;13.10;99.90
7588;DHT22;3835;48.850;8.938;2024-02-14T15:22:16;13.10;99.90
7588;DHT22;3835;48.850;8.938;2024-02-14T15:24:43;13.00;99.90
7588;DHT22;3835;48.850;8.938;2024-02-14T15:27:10;13.00;99.90
7588;DHT22;3835;48.850;8.938;2024-02-14T15:29:46;13.00;99.90
7588;DHT22;3835;48.850;8.938;2024-02-14T15:32:46;12.80;99.90
7588;DHT22;3835;48.850;8.938;2024-02-14T15:35:30;12.80;99.90
7588;DHT22;3835;48.850;8.938;2024-02-14T15:37:58;12.70;99.90
7588;DHT22;3835;48.850;8.938;2024-02-14T15:40:25;12.50;99.90
7588;DHT22;3835;48.850;8.938;2024-02-14T15:42:53;12.50;99.90
7588;DHT22;3835;48.850;8.938;2024-02-14T15:45:20;12.40;99.90
7588;DHT22;3835;48.850;8.938;2024-02-14T15:47:48;12.40;99.90
7588;DHT22;3835;48.850;8.938;2024-02-14T15:50:15;12.30;99.90
7588;DHT22;3835;48.850;8.938;2024-02-14T15:52:42;12.30;99.90
7588;DHT22;3835;48.850;8.938;2024-02-14T15:55:09;12.20;99.90
7588;DHT22;3835;48.850;8.938;2024-02-14T15:57:35;12.20;99.90
7588;DHT22;3835;48.850;8.938;2024-02-14T16:00:03;12.00;99.90
7588;DHT22;3835;48.850;8.938;2024-02-14T16:02:31;12.00;99.90
7588;DHT22;3835;48.850;8.938;2024-02-14T16:04:59;12.00;99.90
7588;DHT22;3835;48.850;8.938;2024-02-14T16:07:28;12.00;99.90
7588;DHT22;3835;48.850;8.938;2024-02-14T16:09:55;12.00;99.90
7588;DHT22;3835;48.850;8.938;2024-02-14T16:12:22;12.00;99.90
7588;DHT22;3835;48.850;8.938;2024-02-14T16:14:49;11.90;99.90